logo
Rechercher aéroport 
image banner adimage banner adimage banner ad
image banner ad

CL49 - International Tower

Situé à Los Angeles, United States

ICAO - CL49, IATA -

Données fournies par Airmate  

Information générale

Coordonnées: N34°2'48" W118°15'43"
Élévation : 542 feet MSL.
Variation magnétique : 14° East
Voir autres Aéroports à California

Données opérationnelles

Special qualification required
Heure actuelle UTC:
Heure actuelle locale:
METAR: KHHR 130153Z AUTO 28007KT 10SM CLR 26/17 A2988 RMK AO2 SLP115 T02560167 $
Voir NOTAMs / SUP AIP / TFR affectant cet aéroport [VIEW]
Fréquences de communication: [VIEW]

Pistes:

Coordonnées de l'aéroport

Adresse: Los Angeles United States

Vue satellite de CL49